sensor_id;sensor_type;location;lat;lon;timestamp;pressure;altitude;pressure_sealevel;temperature;humidity
75447;BME280;64024;55.820;37.574;2023-04-03T00:02:20;98567.06;;;19.65;44.81
75447;BME280;64024;55.820;37.574;2023-04-03T00:04:46;98569.50;;;19.67;45.13
75447;BME280;64024;55.820;37.574;2023-04-03T00:07:12;98565.72;;;19.68;45.30
75447;BME280;64024;55.820;37.574;2023-04-03T00:09:40;98569.22;;;19.68;45.20
75447;BME280;64024;55.820;37.574;2023-04-03T00:12:07;98574.31;;;19.70;45.40
75447;BME280;64024;55.820;37.574;2023-04-03T00:14:33;98573.25;;;19.71;45.46
75447;BME280;64024;55.820;37.574;2023-04-03T00:16:59;98576.75;;;19.71;45.40
75447;BME280;64024;55.820;37.574;2023-04-03T00:19:25;98574.84;;;19.72;45.70
75447;BME280;64024;55.820;37.574;2023-04-03T00:21:51;98575.34;;;19.74;45.57
75447;BME280;64024;55.820;37.574;2023-04-03T00:24:19;98576.19;;;19.74;45.68
75447;BME280;64024;55.820;37.574;2023-04-03T00:26:45;98568.09;;;19.74;45.89
75447;BME280;64024;55.820;37.574;2023-04-03T00:29:11;98573.19;;;19.76;45.81
75447;BME280;64024;55.820;37.574;2023-04-03T00:31:38;98573.19;;;19.76;45.79
75447;BME280;64024;55.820;37.574;2023-04-03T00:34:03;98571.28;;;19.76;45.88
75447;BME280;64024;55.820;37.574;2023-04-03T00:36:29;98575.59;;;19.77;45.84
75447;BME280;64024;55.820;37.574;2023-04-03T00:38:56;98571.81;;;19.78;45.70
75447;BME280;64024;55.820;37.574;2023-04-03T00:41:22;98557.50;;;19.78;45.91
75447;BME280;64024;55.820;37.574;2023-04-03T00:43:48;98561.84;;;19.79;45.71
75447;BME280;64024;55.820;37.574;2023-04-03T00:46:14;98564.53;;;19.79;45.81
75447;BME280;64024;55.820;37.574;2023-04-03T00:48:42;98564.25;;;19.80;45.78
75447;BME280;64024;55.820;37.574;2023-04-03T00:51:16;98558.84;;;19.80;45.86
75447;BME280;64024;55.820;37.574;2023-04-03T00:53:58;98559.38;;;19.82;45.92
75447;BME280;64024;55.820;37.574;2023-04-03T00:56:26;98564.78;;;19.82;45.91
75447;BME280;64024;55.820;37.574;2023-04-03T00:59:10;98561.78;;;19.84;45.71
75447;BME280;64024;55.820;37.574;2023-04-03T01:01:37;98563.69;;;19.83;45.71
75447;BME280;64024;55.820;37.574;2023-04-03T01:04:04;98567.97;;;19.84;45.89
75447;BME280;64024;55.820;37.574;2023-04-03T01:06:35;98570.97;;;19.83;45.83
75447;BME280;64024;55.820;37.574;2023-04-03T01:09:02;98567.97;;;19.84;45.59
75447;BME280;64024;55.820;37.574;2023-04-03T01:11:28;98573.38;;;19.84;45.85
75447;BME280;64024;55.820;37.574;2023-04-03T01:13:54;98569.56;;;19.85;45.78
75447;BME280;64024;55.820;37.574;2023-04-03T01:16:20;98569.56;;;19.85;45.84
75447;BME280;64024;55.820;37.574;2023-04-03T01:18:48;98561.50;;;19.85;45.92
75447;BME280;64024;55.820;37.574;2023-04-03T01:24:17;98564.91;;;19.96;45.71
75447;BME280;64024;55.820;37.574;2023-04-03T01:26:48;98565.75;;;19.92;45.68
75447;BME280;64024;55.820;37.574;2023-04-03T01:29:15;98560.94;;;19.89;45.71
75447;BME280;64024;55.820;37.574;2023-04-03T01:31:56;98568.22;;;19.88;45.62
75447;BME280;64024;55.820;37.574;2023-04-03T01:34:22;98571.22;;;19.86;45.60
75447;BME280;64024;55.820;37.574;2023-04-03T01:36:49;98563.38;;;19.85;45.62
75447;BME280;64024;55.820;37.574;2023-04-03T01:39:16;98564.97;;;19.86;45.58
75447;BME280;64024;55.820;37.574;2023-04-03T01:41:42;98562.28;;;19.86;45.65
75447;BME280;64024;55.820;37.574;2023-04-03T01:44:09;98571.47;;;19.85;45.85
75447;BME280;64024;55.820;37.574;2023-04-03T01:46:35;98578.47;;;19.86;45.50
75447;BME280;64024;55.820;37.574;2023-04-03T01:49:01;98571.47;;;19.85;45.76
75447;BME280;64024;55.820;37.574;2023-04-03T01:51:27;98577.66;;;19.85;45.54
75447;BME280;64024;55.820;37.574;2023-04-03T01:53:53;98574.16;;;19.85;45.58
75447;BME280;64024;55.820;37.574;2023-04-03T01:56:19;98574.97;;;19.85;45.62
75447;BME280;64024;55.820;37.574;2023-04-03T01:58:45;98572.28;;;19.85;45.62
75447;BME280;64024;55.820;37.574;2023-04-03T02:01:12;98573.91;;;19.86;45.50
75447;BME280;64024;55.820;37.574;2023-04-03T02:03:38;98569.31;;;19.87;45.53
75447;BME280;64024;55.820;37.574;2023-04-03T02:06:05;98575.78;;;19.86;45.59
75447;BME280;64024;55.820;37.574;2023-04-03T02:08:32;98576.59;;;19.86;45.45
75447;BME280;64024;55.820;37.574;2023-04-03T02:10:58;98573.06;;;19.86;45.51
75447;BME280;64024;55.820;37.574;2023-04-03T02:13:24;98574.16;;;19.85;45.28
75447;BME280;64024;55.820;37.574;2023-04-03T02:15:50;98571.47;;;19.85;45.26
75447;BME280;64024;55.820;37.574;2023-04-03T02:18:17;98573.06;;;19.86;45.30
75447;BME280;64024;55.820;37.574;2023-04-03T02:20:44;98574.16;;;19.85;45.31
75447;BME280;64024;55.820;37.574;2023-04-03T02:23:10;98573.06;;;19.86;45.46
75447;BME280;64024;55.820;37.574;2023-04-03T02:25:37;98573.06;;;19.86;45.26
75447;BME280;64024;55.820;37.574;2023-04-03T02:28:03;98568.78;;;19.85;45.33
75447;BME280;64024;55.820;37.574;2023-04-03T02:30:29;98574.97;;;19.85;45.12
75447;BME280;64024;55.820;37.574;2023-04-03T02:32:56;98571.47;;;19.85;45.12
75447;BME280;64024;55.820;37.574;2023-04-03T02:35:21;98579.56;;;19.85;45.07
75447;BME280;64024;55.820;37.574;2023-04-03T02:37:47;98573.38;;;19.84;45.15
75447;BME280;64024;55.820;37.574;2023-04-03T02:40:13;98574.47;;;19.83;45.17
75447;BME280;64024;55.820;37.574;2023-04-03T02:42:39;98580.66;;;19.84;45.21
75447;BME280;64024;55.820;37.574;2023-04-03T02:45:05;98572.88;;;19.82;45.24
75447;BME280;64024;55.820;37.574;2023-04-03T02:47:31;98566.63;;;19.82;45.17
75447;BME280;64024;55.820;37.574;2023-04-03T02:49:58;98572.88;;;19.82;45.31
75447;BME280;64024;55.820;37.574;2023-04-03T02:52:24;98583.66;;;19.82;44.96
75447;BME280;64024;55.820;37.574;2023-04-03T02:54:50;98570.16;;;19.82;45.27
75447;BME280;64024;55.820;37.574;2023-04-03T02:57:16;98566.94;;;19.80;44.96
75447;BME280;64024;55.820;37.574;2023-04-03T02:59:42;98575.56;;;19.82;45.03
75447;BME280;64024;55.820;37.574;2023-04-03T03:02:10;98579.31;;;19.81;45.12
75447;BME280;64024;55.820;37.574;2023-04-03T03:04:37;98579.63;;;19.80;45.07
75447;BME280;64024;55.820;37.574;2023-04-03T03:07:03;98584.44;;;19.83;44.88
75447;BME280;64024;55.820;37.574;2023-04-03T03:09:30;98577.44;;;19.82;44.99
75447;BME280;64024;55.820;37.574;2023-04-03T03:11:57;98583.34;;;19.84;44.96
75447;BME280;64024;55.820;37.574;2023-04-03T03:14:24;98585.25;;;19.83;44.86
75447;BME280;64024;55.820;37.574;2023-04-03T03:16:50;98584.16;;;19.84;44.93
75447;BME280;64024;55.820;37.574;2023-04-03T03:19:17;98586.34;;;19.82;45.07
75447;BME280;64024;55.820;37.574;2023-04-03T03:21:44;98584.44;;;19.83;45.18
75447;BME280;64024;55.820;37.574;2023-04-03T03:24:09;98587.66;;;19.85;45.26
75447;BME280;64024;55.820;37.574;2023-04-03T03:26:38;98594.66;;;19.86;45.51
75447;BME280;64024;55.820;37.574;2023-04-03T03:29:04;98594.38;;;19.88;45.51
75447;BME280;64024;55.820;37.574;2023-04-03T03:31:31;98596.28;;;19.87;45.79
75447;BME280;64024;55.820;37.574;2023-04-03T03:33:57;98595.97;;;19.89;45.86
75447;BME280;64024;55.820;37.574;2023-04-03T03:36:23;98587.59;;;19.90;45.85
75447;BME280;64024;55.820;37.574;2023-04-03T03:38:50;98600.81;;;19.92;45.70
75447;BME280;64024;55.820;37.574;2023-04-03T03:41:16;98597.81;;;19.93;45.67
75447;BME280;64024;55.820;37.574;2023-04-03T03:43:43;98601.06;;;19.95;45.72
75447;BME280;64024;55.820;37.574;2023-04-03T03:46:09;98606.16;;;19.97;45.61
75447;BME280;64024;55.820;37.574;2023-04-03T03:48:35;98595.88;;;19.99;45.88
75447;BME280;64024;55.820;37.574;2023-04-03T03:51:01;98595.59;;;20.00;45.67
75447;BME280;64024;55.820;37.574;2023-04-03T03:53:28;98589.91;;;20.02;45.83
75447;BME280;64024;55.820;37.574;2023-04-03T03:55:55;98588.56;;;20.04;45.71
75447;BME280;64024;55.820;37.574;2023-04-03T03:58:21;98587.16;;;20.07;45.81
75447;BME280;64024;55.820;37.574;2023-04-03T04:00:48;98592.28;;;20.08;45.64
75447;BME280;64024;55.820;37.574;2023-04-03T04:03:14;98585.78;;;20.09;45.72
75447;BME280;64024;55.820;37.574;2023-04-03T04:05:40;98589.81;;;20.12;45.79
75447;BME280;64024;55.820;37.574;2023-04-03T04:08:06;98590.06;;;20.16;45.92
75447;BME280;64024;55.820;37.574;2023-04-03T04:10:33;98587.06;;;20.17;45.90
75447;BME280;64024;55.820;37.574;2023-04-03T04:13:00;98590.00;;;20.21;45.81
75447;BME280;64024;55.820;37.574;2023-04-03T04:15:26;98588.91;;;20.22;45.97
75447;BME280;64024;55.820;37.574;2023-04-03T04:17:52;98595.09;;;20.22;45.88
75447;BME280;64024;55.820;37.574;2023-04-03T04:20:19;98591.03;;;20.25;46.02
75447;BME280;64024;55.820;37.574;2023-04-03T04:22:45;98591.81;;;20.25;46.05
75447;BME280;64024;55.820;37.574;2023-04-03T04:25:13;98601.22;;;20.28;46.02
75447;BME280;64024;55.820;37.574;2023-04-03T04:27:39;98594.75;;;20.29;45.85
75447;BME280;64024;55.820;37.574;2023-04-03T04:30:06;98590.97;;;20.30;46.14
75447;BME280;64024;55.820;37.574;2023-04-03T04:32:33;98598.75;;;20.31;46.19
75447;BME280;64024;55.820;37.574;2023-04-03T04:34:58;98601.19;;;20.33;46.17
75447;BME280;64024;55.820;37.574;2023-04-03T04:37:25;98609.78;;;20.35;46.27
75447;BME280;64024;55.820;37.574;2023-04-03T04:39:50;98603.28;;;20.36;46.27
75447;BME280;64024;55.820;37.574;2023-04-03T04:42:16;98614.91;;;20.36;45.88
75447;BME280;64024;55.820;37.574;2023-04-03T04:44:42;98609.22;;;20.38;46.14
75447;BME280;64024;55.820;37.574;2023-04-03T04:47:09;98610.81;;;20.39;46.03
75447;BME280;64024;55.820;37.574;2023-04-03T04:49:35;98610.56;;;20.41;45.99
75447;BME280;64024;55.820;37.574;2023-04-03T04:52:01;98616.44;;;20.43;46.39
75447;BME280;64024;55.820;37.574;2023-04-03T04:54:27;98618.84;;;20.44;46.13
75447;BME280;64024;55.820;37.574;2023-04-03T04:56:54;98613.69;;;20.48;46.06
75447;BME280;64024;55.820;37.574;2023-04-03T04:59:21;98618.84;;;20.49;46.17
75447;BME280;64024;55.820;37.574;2023-04-03T05:01:47;98616.53;;;20.62;46.08
75447;BME280;64024;55.820;37.574;2023-04-03T05:04:14;98618.72;;;20.59;45.94
75447;BME280;64024;55.820;37.574;2023-04-03T05:06:41;98614.41;;;20.58;45.92
75447;BME280;64024;55.820;37.574;2023-04-03T05:09:07;98618.72;;;20.59;45.91
75447;BME280;64024;55.820;37.574;2023-04-03T05:11:34;98622.75;;;20.62;45.92
75447;BME280;64024;55.820;37.574;2023-04-03T05:14:01;98618.13;;;20.63;45.91
75447;BME280;64024;55.820;37.574;2023-04-03T05:16:27;98615.66;;;20.66;45.96
75447;BME280;64024;55.820;37.574;2023-04-03T05:18:54;98619.97;;;20.67;46.02
75447;BME280;64024;55.820;37.574;2023-04-03T05:21:21;98621.31;;;20.70;45.97
75447;BME280;64024;55.820;37.574;2023-04-03T05:23:48;98615.31;;;20.73;45.85
75447;BME280;64024;55.820;37.574;2023-04-03T05:26:15;98620.13;;;20.76;46.03
75447;BME280;64024;55.820;37.574;2023-04-03T05:28:41;98617.97;;;20.78;45.94
75447;BME280;64024;55.820;37.574;2023-04-03T05:31:07;98618.03;;;20.92;45.86
75447;BME280;64024;55.820;37.574;2023-04-03T05:33:34;98616.72;;;20.89;45.58
75447;BME280;64024;55.820;37.574;2023-04-03T05:36:07;98622.13;;;20.89;45.60
75447;BME280;64024;55.820;37.574;2023-04-03T05:38:32;98613.75;;;20.91;45.78
75447;BME280;64024;55.820;37.574;2023-04-03T05:40:59;98622.63;;;20.91;45.81
75447;BME280;64024;55.820;37.574;2023-04-03T05:43:25;98617.72;;;20.93;45.81
75447;BME280;64024;55.820;37.574;2023-04-03T05:45:51;98623.66;;;20.95;45.76
75447;BME280;64024;55.820;37.574;2023-04-03T05:48:17;98626.88;;;20.97;45.82
75447;BME280;64024;55.820;37.574;2023-04-03T05:50:45;98629.00;;;21.00;45.82
75447;BME280;64024;55.820;37.574;2023-04-03T05:53:21;98619.50;;;21.03;45.74
75447;BME280;64024;55.820;37.574;2023-04-03T05:55:49;98627.31;;;21.04;45.75
75447;BME280;64024;55.820;37.574;2023-04-03T05:58:15;98621.59;;;21.06;45.82
75447;BME280;64024;55.820;37.574;2023-04-03T06:00:41;98627.53;;;21.08;45.69
75447;BME280;64024;55.820;37.574;2023-04-03T06:03:08;98629.13;;;21.09;45.73
75447;BME280;64024;55.820;37.574;2023-04-03T06:05:34;98636.66;;;21.12;45.49
75447;BME280;64024;55.820;37.574;2023-04-03T06:08:01;98641.78;;;21.14;45.67
75447;BME280;64024;55.820;37.574;2023-04-03T06:10:29;98642.28;;;21.16;45.60
75447;BME280;64024;55.820;37.574;2023-04-03T06:12:55;98646.28;;;21.18;45.76
75447;BME280;64024;55.820;37.574;2023-04-03T06:15:21;98652.22;;;21.20;45.56
75447;BME280;64024;55.820;37.574;2023-04-03T06:17:48;98651.94;;;21.22;45.59
75447;BME280;64024;55.820;37.574;2023-04-03T06:20:14;98657.03;;;21.23;45.74
75447;BME280;64024;55.820;37.574;2023-04-03T06:22:40;98656.75;;;21.25;45.51
75447;BME280;64024;55.820;37.574;2023-04-03T06:25:08;98661.06;;;21.26;45.48
75447;BME280;64024;55.820;37.574;2023-04-03T06:27:34;98658.88;;;21.28;45.49
75447;BME280;64024;55.820;37.574;2023-04-03T06:30:01;98665.88;;;21.29;45.68
75447;BME280;64024;55.820;37.574;2023-04-03T06:32:27;98659.38;;;21.30;45.49
75447;BME280;64024;55.820;37.574;2023-04-03T06:34:54;98666.38;;;21.31;45.65
75447;BME280;64024;55.820;37.574;2023-04-03T06:37:23;98659.63;;;21.33;45.42
75447;BME280;64024;55.820;37.574;2023-04-03T06:39:54;98660.13;;;21.35;45.49
75447;BME280;64024;55.820;37.574;2023-04-03T06:42:23;98666.06;;;21.38;45.50
75447;BME280;64024;55.820;37.574;2023-04-03T06:44:50;98665.75;;;21.39;45.44
75447;BME280;64024;55.820;37.574;2023-04-03T06:47:16;98665.47;;;21.41;45.63
75447;BME280;64024;55.820;37.574;2023-04-03T06:49:44;98665.97;;;21.43;45.44
75447;BME280;64024;55.820;37.574;2023-04-03T06:52:11;98658.66;;;21.43;45.46
75447;BME280;64024;55.820;37.574;2023-04-03T06:54:40;98660.78;;;21.46;45.46
75447;BME280;64024;55.820;37.574;2023-04-03T06:57:07;98659.69;;;21.47;45.54
75447;BME280;64024;55.820;37.574;2023-04-03T06:59:33;98665.63;;;21.49;45.49
75447;BME280;64024;55.820;37.574;2023-04-03T07:02:00;98667.75;;;21.52;45.50
75447;BME280;64024;55.820;37.574;2023-04-03T07:04:26;98665.66;;;21.63;45.16
75447;BME280;64024;55.820;37.574;2023-04-03T07:06:53;98677.06;;;21.60;45.36
75447;BME280;64024;55.820;37.574;2023-04-03T07:09:19;98671.97;;;21.58;45.15
75447;BME280;64024;55.820;37.574;2023-04-03T07:11:47;98673.56;;;21.59;45.30
75447;BME280;64024;55.820;37.574;2023-04-03T07:14:13;98667.88;;;21.61;45.21
75447;BME280;64024;55.820;37.574;2023-04-03T07:16:39;98671.38;;;21.62;45.38
75447;BME280;64024;55.820;37.574;2023-04-03T07:19:05;98665.66;;;21.63;45.24
75447;BME280;64024;55.820;37.574;2023-04-03T07:21:34;98665.38;;;21.65;45.33
75447;BME280;64024;55.820;37.574;2023-04-03T07:24:01;98671.28;;;21.67;45.26
75447;BME280;64024;55.820;37.574;2023-04-03T07:26:27;98664.78;;;21.68;45.24
75447;BME280;64024;55.820;37.574;2023-04-03T07:28:53;98667.22;;;21.69;45.54
75447;BME280;64024;55.820;37.574;2023-04-03T07:31:19;98675.81;;;21.71;45.13
75447;BME280;64024;55.820;37.574;2023-04-03T07:33:45;98670.09;;;21.73;45.40
75447;BME280;64024;55.820;37.574;2023-04-03T07:36:16;98676.84;;;21.75;45.19
75447;BME280;64024;55.820;37.574;2023-04-03T07:38:42;98674.94;;;21.76;45.26
75447;BME280;64024;55.820;37.574;2023-04-03T07:41:12;98675.47;;;21.78;45.40
75447;BME280;64024;55.820;37.574;2023-04-03T07:43:39;98675.16;;;21.79;45.49
75447;BME280;64024;55.820;37.574;2023-04-03T07:46:06;98672.13;;;21.81;45.26
75447;BME280;64024;55.820;37.574;2023-04-03T07:48:32;98678.88;;;21.83;45.27
75447;BME280;64024;55.820;37.574;2023-04-03T07:51:02;98683.97;;;21.85;45.22
75447;BME280;64024;55.820;37.574;2023-04-03T07:53:30;98688.00;;;21.88;45.23
75447;BME280;64024;55.820;37.574;2023-04-03T07:55:59;98680.38;;;21.90;45.21
75447;BME280;64024;55.820;37.574;2023-04-03T07:58:25;98684.41;;;21.92;45.33
75447;BME280;64024;55.820;37.574;2023-04-03T08:00:52;98679.22;;;21.96;45.09
75447;BME280;64024;55.820;37.574;2023-04-03T08:03:18;98686.44;;;22.00;45.08
75447;BME280;64024;55.820;37.574;2023-04-03T08:05:46;98683.16;;;22.03;45.01
75447;BME280;64024;55.820;37.574;2023-04-03T08:08:14;98681.44;;;22.07;44.80
75447;BME280;64024;55.820;37.574;2023-04-03T08:10:41;98671.63;;;22.12;44.72
75447;BME280;64024;55.820;37.574;2023-04-03T08:13:08;98681.06;;;22.14;44.80
75447;BME280;64024;55.820;37.574;2023-04-03T08:15:34;98678.59;;;22.18;44.61
75447;BME280;64024;55.820;37.574;2023-04-03T08:18:01;98679.59;;;22.22;44.19
75447;BME280;64024;55.820;37.574;2023-04-03T08:20:28;98678.69;;;22.26;43.96
75447;BME280;64024;55.820;37.574;2023-04-03T08:22:55;98680.03;;;22.29;43.39
75447;BME280;64024;55.820;37.574;2023-04-03T08:25:21;98675.41;;;22.29;42.66
75447;BME280;64024;55.820;37.574;2023-04-03T08:27:47;98673.50;;;22.30;41.86
75447;BME280;64024;55.820;37.574;2023-04-03T08:30:14;98680.50;;;22.31;41.76
75447;BME280;64024;55.820;37.574;2023-04-03T08:32:40;98674.81;;;22.32;41.88
75447;BME280;64024;55.820;37.574;2023-04-03T08:35:09;98679.13;;;22.33;42.16
75447;BME280;64024;55.820;37.574;2023-04-03T08:37:36;98678.81;;;22.35;42.19
75447;BME280;64024;55.820;37.574;2023-04-03T08:40:05;98686.66;;;22.37;42.35
75447;BME280;64024;55.820;37.574;2023-04-03T08:46:11;98693.28;;;22.44;41.69
75447;BME280;64024;55.820;37.574;2023-04-03T08:48:42;98690.56;;;22.44;41.87
75447;BME280;64024;55.820;37.574;2023-04-03T08:51:19;98690.56;;;22.44;41.12
75447;BME280;64024;55.820;37.574;2023-04-03T08:54:00;98694.56;;;22.47;40.97
75447;BME280;64024;55.820;37.574;2023-04-03T08:56:30;98693.78;;;22.46;41.18
75447;BME280;64024;55.820;37.574;2023-04-03T08:59:11;98704.00;;;22.49;40.92
75447;BME280;64024;55.820;37.574;2023-04-03T09:01:40;98702.91;;;22.50;41.03
75447;BME280;64024;55.820;37.574;2023-04-03T09:04:16;98698.28;;;22.51;40.95
75447;BME280;64024;55.820;37.574;2023-04-03T09:06:45;98708.84;;;22.52;40.82
75447;BME280;64024;55.820;37.574;2023-04-03T09:22:56;98716.97;;;22.66;41.12
75447;BME280;64024;55.820;37.574;2023-04-03T09:25:29;98714.25;;;22.66;40.42
75447;BME280;64024;55.820;37.574;2023-04-03T09:28:00;98709.63;;;22.67;39.89
75447;BME280;64024;55.820;37.574;2023-04-03T09:30:27;98727.22;;;22.69;39.67
75447;BME280;64024;55.820;37.574;2023-04-03T09:32:56;98717.16;;;22.70;39.66
75447;BME280;64024;55.820;37.574;2023-04-03T09:35:30;98729.28;;;22.72;38.93
75447;BME280;64024;55.820;37.574;2023-04-03T09:38:14;98721.47;;;22.71;38.27
75447;BME280;64024;55.820;37.574;2023-04-03T09:40:43;98718.78;;;22.71;37.82
75447;BME280;64024;55.820;37.574;2023-04-03T09:43:27;98722.28;;;22.71;37.33
75447;BME280;64024;55.820;37.574;2023-04-03T09:45:54;98713.66;;;22.69;37.30
75447;BME280;64024;55.820;37.574;2023-04-03T09:48:23;98722.06;;;22.68;36.94
75447;BME280;64024;55.820;37.574;2023-04-03T09:53:36;98722.88;;;22.68;36.69
75447;BME280;64024;55.820;37.574;2023-04-03T09:56:17;98723.97;;;22.67;36.65
75447;BME280;64024;55.820;37.574;2023-04-03T10:06:40;98726.09;;;22.70;36.59
75447;BME280;64024;55.820;37.574;2023-04-03T10:09:41;98724.81;;;22.81;36.49
75447;BME280;64024;55.820;37.574;2023-04-03T10:12:05;98723.00;;;22.77;36.85
75447;BME280;64024;55.820;37.574;2023-04-03T10:14:35;98729.00;;;22.74;36.49
75447;BME280;64024;55.820;37.574;2023-04-03T10:28:02;98728.59;;;22.80;36.71
75447;BME280;64024;55.820;37.574;2023-04-03T10:30:36;98732.13;;;22.81;37.26
75447;BME280;64024;55.820;37.574;2023-04-03T10:33:29;98732.31;;;22.84;36.80
75447;BME280;64024;55.820;37.574;2023-04-03T10:36:06;98735.34;;;22.83;36.87
75447;BME280;64024;55.820;37.574;2023-04-03T10:44:12;98732.50;;;22.88;37.24
75447;BME280;64024;55.820;37.574;2023-04-03T10:46:46;98738.72;;;22.89;37.62
75447;BME280;64024;55.820;37.574;2023-04-03T10:52:24;98743.28;;;22.93;36.91
75447;BME280;64024;55.820;37.574;2023-04-03T10:55:21;98743.00;;;22.95;36.41
75447;BME280;64024;55.820;37.574;2023-04-03T10:57:50;98738.38;;;22.95;36.65
75447;BME280;64024;55.820;37.574;2023-04-03T11:00:22;98743.78;;;22.95;36.90
75447;BME280;64024;55.820;37.574;2023-04-03T11:02:59;98736.97;;;22.98;36.86
75447;BME280;64024;55.820;37.574;2023-04-03T11:08:10;98740.19;;;23.00;36.30
75447;BME280;64024;55.820;37.574;2023-04-03T11:10:49;98733.97;;;22.99;35.70
75447;BME280;64024;55.820;37.574;2023-04-03T11:13:30;98738.88;;;22.97;35.86
75447;BME280;64024;55.820;37.574;2023-04-03T11:15:58;98737.25;;;22.96;35.57
75447;BME280;64024;55.820;37.574;2023-04-03T11:18:47;98731.84;;;22.96;35.65
75447;BME280;64024;55.820;37.574;2023-04-03T11:21:41;98732.63;;;22.97;35.84
75447;BME280;64024;55.820;37.574;2023-04-03T11:24:30;98721.53;;;22.98;36.05
75447;BME280;64024;55.820;37.574;2023-04-03T11:27:00;98718.00;;;22.98;36.01
75447;BME280;64024;55.820;37.574;2023-04-03T11:29:35;98729.94;;;22.97;35.71
75447;BME280;64024;55.820;37.574;2023-04-03T11:32:38;98725.03;;;22.99;35.56
75447;BME280;64024;55.820;37.574;2023-04-03T11:35:10;98727.22;;;22.97;35.47
75447;BME280;64024;55.820;37.574;2023-04-03T11:37:44;98732.97;;;22.95;35.87
75447;BME280;64024;55.820;37.574;2023-04-03T11:40:32;98728.84;;;22.98;35.43
75447;BME280;64024;55.820;37.574;2023-04-03T11:45:35;98719.88;;;22.97;35.91
75447;BME280;64024;55.820;37.574;2023-04-03T11:50:47;98716.59;;;23.00;36.09
75447;BME280;64024;55.820;37.574;2023-04-03T11:58:17;98723.53;;;23.06;36.59
75447;BME280;64024;55.820;37.574;2023-04-03T12:00:54;98728.03;;;23.11;36.58
75447;BME280;64024;55.820;37.574;2023-04-03T12:08:45;98719.00;;;23.16;36.94
75447;BME280;64024;55.820;37.574;2023-04-03T12:16:22;98727.13;;;23.16;35.93
75447;BME280;64024;55.820;37.574;2023-04-03T12:21:17;98727.13;;;23.16;36.00
75447;BME280;64024;55.820;37.574;2023-04-03T12:40:31;98723.91;;;23.14;35.92
75447;BME280;64024;55.820;37.574;2023-04-03T12:45:52;98720.69;;;23.12;36.88
75447;BME280;64024;55.820;37.574;2023-04-03T12:48:27;98733.13;;;23.13;36.41
75447;BME280;64024;55.820;37.574;2023-04-03T12:50:54;98725.81;;;23.13;36.15
75447;BME280;64024;55.820;37.574;2023-04-03T12:53:35;98727.44;;;23.14;35.67
75447;BME280;64024;55.820;37.574;2023-04-03T12:56:26;98719.59;;;23.13;35.38
75447;BME280;64024;55.820;37.574;2023-04-03T12:58:54;98721.28;;;23.08;35.68
75447;BME280;64024;55.820;37.574;2023-04-03T13:01:25;98733.56;;;23.06;35.61
75447;BME280;64024;55.820;37.574;2023-04-03T13:03:56;98728.44;;;23.04;35.95
75447;BME280;64024;55.820;37.574;2023-04-03T13:06:27;98727.94;;;23.02;35.69
75447;BME280;64024;55.820;37.574;2023-04-03T13:08:58;98727.94;;;23.02;35.27
75447;BME280;64024;55.820;37.574;2023-04-03T13:11:30;98741.78;;;23.01;34.80
75447;BME280;64024;55.820;37.574;2023-04-03T13:14:02;98735.66;;;23.09;34.73
75447;BME280;64024;55.820;37.574;2023-04-03T13:16:31;98731.25;;;22.99;34.80
75447;BME280;64024;55.820;37.574;2023-04-03T13:18:58;98734.06;;;22.94;35.17
75447;BME280;64024;55.820;37.574;2023-04-03T13:21:31;98738.47;;;22.90;34.81
75447;BME280;64024;55.820;37.574;2023-04-03T13:24:01;98742.88;;;22.86;34.82
75447;BME280;64024;55.820;37.574;2023-04-03T13:26:31;98742.16;;;22.80;34.59
75447;BME280;64024;55.820;37.574;2023-04-03T13:29:07;98743.03;;;22.76;34.35
75447;BME280;64024;55.820;37.574;2023-04-03T13:31:37;98743.47;;;22.69;34.28
75447;BME280;64024;55.820;37.574;2023-04-03T13:34:13;98747.34;;;22.63;34.34
75447;BME280;64024;55.820;37.574;2023-04-03T13:36:45;98747.25;;;22.54;34.10
75447;BME280;64024;55.820;37.574;2023-04-03T13:41:44;98738.00;;;22.42;34.31
75447;BME280;64024;55.820;37.574;2023-04-03T13:47:37;98742.28;;;22.29;34.50
75447;BME280;64024;55.820;37.574;2023-04-03T13:49:45;98745.09;;;22.24;34.73
75447;BME280;64024;55.820;37.574;2023-04-03T13:52:26;98741.06;;;22.21;35.14
75447;BME280;64024;55.820;37.574;2023-04-03T13:55:15;98747.06;;;22.18;35.64
75447;BME280;64024;55.820;37.574;2023-04-03T13:57:55;98745.44;;;22.17;36.02
75447;BME280;64024;55.820;37.574;2023-04-03T14:00:31;98735.22;;;22.14;36.20
75447;BME280;64024;55.820;37.574;2023-04-03T14:02:58;98737.38;;;22.12;36.51
75447;BME280;64024;55.820;37.574;2023-04-03T14:05:25;98737.69;;;22.11;36.48
75447;BME280;64024;55.820;37.574;2023-04-03T14:07:54;98737.97;;;22.09;36.61
75447;BME280;64024;55.820;37.574;2023-04-03T14:10:20;98737.47;;;22.07;36.61
75447;BME280;64024;55.820;37.574;2023-04-03T14:12:47;98742.09;;;22.06;36.67
75447;BME280;64024;55.820;37.574;2023-04-03T14:15:23;98743.16;;;22.05;37.13
75447;BME280;64024;55.820;37.574;2023-04-03T14:17:51;98747.78;;;22.05;37.04
75447;BME280;64024;55.820;37.574;2023-04-03T14:20:20;98740.78;;;22.04;37.25
75447;BME280;64024;55.820;37.574;2023-04-03T14:22:47;98748.88;;;22.04;37.58
75447;BME280;64024;55.820;37.574;2023-04-03T14:25:15;98750.00;;;22.03;37.53
75447;BME280;64024;55.820;37.574;2023-04-03T14:27:47;98750.00;;;22.03;37.60
75447;BME280;64024;55.820;37.574;2023-04-03T14:30:22;98751.91;;;22.02;37.72
75447;BME280;64024;55.820;37.574;2023-04-03T14:32:49;98745.66;;;22.02;37.60
75447;BME280;64024;55.820;37.574;2023-04-03T14:35:17;98746.75;;;22.01;37.68
75447;BME280;64024;55.820;37.574;2023-04-03T14:37:45;98750.56;;;22.00;37.88
75447;BME280;64024;55.820;37.574;2023-04-03T14:40:18;98752.47;;;21.99;37.62
75447;BME280;64024;55.820;37.574;2023-04-03T14:42:44;98751.69;;;21.99;37.84